Somerset, Indiana
Current Conditions -  °F | °C
As of 9:55 PM on Friday 19 Dec 2014 (Local Time) from KMZZ Reporting Station
Haze Haze  
Wind Chill: 29°   Ceiling: 2500
Heat Index: 29°   Visibility: 5mi
Dew Point: 28°   Wind: 0mph
Humidity: 94%   Direction: NA
Pressure: 30.27"   Gusts: NA
Location:  40.67°N, 85.83°W
Report Text: KMZZ 200255Z AUTO 00000KT 5SM BR OVC025 M02/M02 A3027 RMK AO2 T10171025
Loading
Personal Weather Stations






























Interactive Weather Map New forecast layout! Learn more

10-Day Weather Forecast

Advertisements
Track Severe Weather on mobile